Terminal Aerodrome Forecast
Issued by NWS Cleveland, OH

Home | Current Version | Previous Version | Graphics & Text | Print | Product List | Glossary Off
Versions: 1 2 3 4 5 6 7 8 9 10 11 12 13 14 15 16 17 18 19 20 21 22 23 24 25 26 27

631
FTUS41 KCLE 240644 AAB
TAFCLE
TAF AMD
KCLE 240644Z 2407/2512 01006KT 3SM -DZ BR OVC003
      TEMPO 2408/2412 3/4SM -DZ BR OVC002
     FM241500 31007KT 3SM BR OVC006
     FM242100 31007KT 5SM BR OVC012=

USA.gov is the U.S. government's official web portal to all federal, state and local government web resources and services.